SLW weather

Plan De Guadalupe International Airport
Saltillo, Coahuila, Mexico

Public forecast

Using degrees Celsius for public forecast. Weather courtesy of forecast.io.

Current aviation weather report (METAR) for Plan De Guadalupe International Airport

Retrieved 2019/10/21 01:40 UTC (0 seconds ago):

MMIO 210140Z 36005KT 10SM SCT100 20/15 A2997 RMK 8/070

Aviation forecast (TAF) for Plan De Guadalupe International Airport

Forecast is more than 6 hours old.

Retrieved 2019/10/20 18:34 UTC (7 hours ago):

TAF MMIO 201629Z 2018/2118 16010KT P6SM SCT030 BKN080 BKN200 BECMG 2022/2023 BKN030CB TEMPO 2100/2104 5SM TSRA FM210600 18006KT P6SM BKN130 FM211600 30006KT P6SM SCT130